This is the latest recevied weather packets stored in our database for station/object KO4FR. If no packets are shown the sender has not sent any weather packets the latest 1 day(s).
| Time | Temp. | Humidity | Pressure | Rain* | Wind** | Luminosity | Snow |
|---|---|---|---|---|---|---|---|
| 1778111409 | 21.11° C | 62% | 1011.6 hPa | 0 mm | - | - | - |
| 1778109609 | 21.11° C | 65% | 1011.3 hPa | 0 mm | - | - | - |
| 1778108709 | 21.67° C | 65% | 1011.2 hPa | 0 mm | - | - | - |
| 1778107809 | 21.67° C | 66% | 1011.3 hPa | 0 mm | - | - | - |
| 1778107209 | 21.67° C | 66% | 1011.1 hPa | 0 mm | - | - | - |
| 1778105709 | 22.22° C | 67% | 1011.1 hPa | 0 mm | - | - | - |
| 1778104809 | 22.22° C | 67% | 1011.1 hPa | 0 mm | - | - | - |
| 1778104509 | 22.22° C | 67% | 1011.1 hPa | 0 mm | - | - | - |
| 1778103608 | 22.22° C | 67% | 1011 hPa | 0 mm | - | - | - |
| 1778103309 | 22.22° C | 67% | 1011.1 hPa | 0 mm | - | - | - |
| 1778100608 | 21.67° C | 67% | 1011.1 hPa | 0 mm | - | - | - |
| 1778100308 | 21.11° C | 67% | 1011.1 hPa | 0 mm | - | - | - |
| 1778100008 | 21.11° C | 67% | 1011 hPa | 0 mm | - | - | - |
| 1778099108 | 21.11° C | 66% | 1011 hPa | 0 mm | - | - | - |
| 1778098508 | 21.11° C | 67% | 1010.9 hPa | 0 mm | - | - | - |
| 1778096708 | 20.56° C | 67% | 1010.5 hPa | 0 mm | - | - | - |
| 1778096408 | 20.56° C | 67% | 1010.1 hPa | 0 mm | - | - | - |
| 1778096108 | 20.56° C | 67% | 1010 hPa | 0 mm | - | - | - |
| 1778095808 | 20.56° C | 67% | 1010.3 hPa | 0 mm | - | - | - |
| 1778095508 | 20.56° C | 67% | 1010.7 hPa | 0 mm | - | - | - |
| 1778094008 | 20.56° C | 66% | 1012 hPa | 0 mm | - | - | - |
| 1778091308 | 20° C | 58% | 1012.9 hPa | 0 mm | - | - | - |
| 1778088308 | 18.89° C | 55% | 1013 hPa | 0 mm | - | - | - |
| 1778084407 | 17.22° C | 29% | 1013.2 hPa | 1.02 mm | - | - | - |
| 1778084107 | 17.22° C | 33% | 1013.3 hPa | 1.02 mm | - | - | - |
* Rain latest hour (hover to see other rain measurements)
** Current wind speed in m/s (hover to see current wind gust speed)